Impacts TAF Board INFO
FOR SITUATIONAL AWARENESS. NOT TO BE USED FOR FLIGHT PLANNING PURPOSES.
IDs:

KIAD - Washington/Dulles In, VA, US

Issued at 1120 UTC 24 Jul 2017
Updated at 1438 UTC 24 Jul 2017
Potential Impact None Slight Moderate High
Time1352Z 24/15Z 24/16Z 24/17Z 24/18Z 24/19Z 24/20Z 24/21Z 24/22Z 24/23Z 25/00Z 25/01Z 25/02Z 25/03Z>>
Type OBS PRVL PRVL PRVL PRVL PRVL PRVL PRVL PRVL PRVL PRVL PRVL PRVL PRVL
VIS 10 >6 >6 >6 >6 >6 >6 >6 >6 >6 >6 >6 >6 >6
CIG -- 160 160 160 160 60 60 60 60 60 -- -- -- --
Cover SCT BKN BKN BKN BKN BKN BKN BKN BKN BKN SCT SCT SCT SCT
FltCat VFR VFR VFR VFR VFR VFR VFR VFR VFR VFR VFR VFR VFR VFR
WX -- -- -- -- -- VCTS VCTS VCTS VCTS VCTS -- -- -- --
WDir VRB VRB VRB VRB VRB 280 280 280 280 280 280 280 280 280
WSpd 6 0 0 0 0 7 7 7 7 7 6 6 6 6
WGst -- -- -- -- -- -- -- -- -- -- -- -- -- --

Raw TAF
KIAD 241120Z 2412/2518 00000KT P6SM BKN160 BKN250
  FM241900 28007KT P6SM VCTS BKN060CB
  FM250000 28006KT P6SM SCT060 SCT250
  FM251000 34005KT P6SM FEW250
  FM251500 33009KT P6SM SCT050


Raw METAR
KIAD 241352Z VRB06KT 10SM SCT250 27/20 A2983 RMK AO2 SLP098 T02720200
KIAD 241252Z 30007KT 10SM FEW040 SCT120 SCT250 26/21 A2983 RMK AO2 SLP099 T02610206
KIAD 241152Z 27003KT 10SM BKN150 BKN250 24/22 A2981 RMK AO2 SLP090 70084 T02440217 10244 20228 53025

METAR Board
Radar Display
Forecast Discussion

FOR SITUATIONAL AWARENESS. NOT TO BE USED FOR FLIGHT PLANNING PURPOSES.